createdAt,value
2023-01-30T00:02:13.492Z,4.34
2023-01-30T00:04:41.547Z,4.57
2023-01-30T00:07:10.972Z,4.71
2023-01-30T00:09:38.919Z,4.84
2023-01-30T00:12:07.797Z,4.91
2023-01-30T00:14:35.789Z,4.95
2023-01-30T00:17:03.749Z,4.99
2023-01-30T00:19:31.994Z,4.91
2023-01-30T00:22:00.150Z,4.74
2023-01-30T00:24:29.931Z,4.74
2023-01-30T00:26:58.257Z,4.56
2023-01-30T00:29:26.431Z,4.46
2023-01-30T00:31:54.467Z,4.69
2023-01-30T00:34:22.477Z,4.88
2023-01-30T00:37:02.498Z,4.87
2023-01-30T00:39:36.753Z,4.97
2023-01-30T00:42:22.542Z,5.04
2023-01-30T00:45:07.641Z,5.10
2023-01-30T00:47:35.672Z,4.64
2023-01-30T00:50:03.863Z,4.75
2023-01-30T00:52:31.982Z,4.81
2023-01-30T00:55:01.430Z,4.91
2023-01-30T00:57:29.407Z,4.98
2023-01-30T00:59:57.503Z,4.84
2023-01-30T01:02:25.496Z,4.92
2023-01-30T01:04:53.606Z,4.89
2023-01-30T01:07:22.141Z,4.94
2023-01-30T01:09:50.161Z,5.02
2023-01-30T01:12:19.559Z,5.05
2023-01-30T01:14:47.526Z,5.09
2023-01-30T01:17:15.860Z,5.12
2023-01-30T01:19:43.867Z,5.17
2023-01-30T01:22:12.104Z,5.22
2023-01-30T01:24:40.076Z,5.24
2023-01-30T01:27:08.077Z,5.26
2023-01-30T01:29:37.593Z,5.26
2023-01-30T01:32:06.075Z,5.28
2023-01-30T01:34:34.108Z,5.24
2023-01-30T01:37:02.273Z,5.25
2023-01-30T01:39:50.470Z,5.24
2023-01-30T01:42:17.954Z,5.15
2023-01-30T01:45:17.985Z,5.18
2023-01-30T01:47:55.741Z,5.10
2023-01-30T01:50:28.201Z,5.02
2023-01-30T01:52:58.366Z,4.95
2023-01-30T01:55:27.066Z,4.99
2023-01-30T01:57:59.196Z,4.99
2023-01-30T02:00:29.062Z,4.97
2023-01-30T02:03:00.066Z,5.00
2023-01-30T02:05:32.267Z,5.08
2023-01-30T02:08:05.477Z,5.11
2023-01-30T02:10:42.696Z,5.09
2023-01-30T02:13:10.935Z,5.05
2023-01-30T02:15:40.769Z,5.06
2023-01-30T02:18:09.166Z,4.98
2023-01-30T02:21:00.361Z,5.04
2023-01-30T02:23:54.803Z,5.07
2023-01-30T02:26:56.195Z,5.03
2023-01-30T02:30:10.061Z,5.07
2023-01-30T02:32:47.227Z,5.12
2023-01-30T02:35:25.599Z,5.16
2023-01-30T02:38:05.356Z,5.19
2023-01-30T02:40:48.579Z,4.93
2023-01-30T02:43:27.623Z,4.89
2023-01-30T02:46:01.711Z,4.94
2023-01-30T02:48:40.517Z,4.94
2023-01-30T02:51:13.791Z,4.59
2023-01-30T02:53:42.290Z,4.59
2023-01-30T02:56:10.305Z,4.47
2023-01-30T02:58:44.094Z,4.40
2023-01-30T03:01:46.016Z,4.49
2023-01-30T03:04:42.651Z,4.55
2023-01-30T03:07:23.802Z,4.61
2023-01-30T03:10:02.869Z,4.66
2023-01-30T03:12:42.459Z,4.70
2023-01-30T03:15:15.399Z,4.70
2023-01-30T03:17:47.011Z,4.38
2023-01-30T03:20:17.655Z,4.54
2023-01-30T03:22:45.681Z,4.65
2023-01-30T03:25:18.942Z,4.71
2023-01-30T03:27:47.361Z,4.83
2023-01-30T03:30:15.881Z,4.88
2023-01-30T03:32:43.880Z,4.90
2023-01-30T03:35:11.919Z,4.74
2023-01-30T03:37:41.298Z,4.65
2023-01-30T03:40:10.631Z,4.56
2023-01-30T03:42:38.634Z,4.69
2023-01-30T03:45:07.819Z,4.71
2023-01-30T03:47:35.804Z,4.74
2023-01-30T03:50:04.066Z,4.81
2023-01-30T03:52:32.065Z,4.88
2023-01-30T03:55:01.639Z,4.90
2023-01-30T03:57:29.655Z,4.98
2023-01-30T03:59:57.900Z,4.89
2023-01-30T04:02:26.371Z,4.95
2023-01-30T04:04:54.496Z,4.97
2023-01-30T04:07:22.673Z,5.00
2023-01-30T04:09:50.899Z,4.99
2023-01-30T04:12:20.467Z,4.83
2023-01-30T04:14:48.664Z,4.83
2023-01-30T04:17:16.712Z,4.83
2023-01-30T04:19:44.816Z,4.56
2023-01-30T04:22:12.813Z,4.50
2023-01-30T04:24:40.799Z,4.52
2023-01-30T04:27:09.327Z,4.63
2023-01-30T04:29:38.834Z,4.75
2023-01-30T04:32:07.024Z,4.84
2023-01-30T04:34:35.109Z,4.88
2023-01-30T04:37:03.258Z,4.89
2023-01-30T04:39:31.450Z,4.80
2023-01-30T04:41:59.639Z,4.88
2023-01-30T04:44:27.867Z,4.95
2023-01-30T04:46:57.234Z,4.96
2023-01-30T04:49:25.215Z,5.04
2023-01-30T04:51:53.458Z,5.06
2023-01-30T04:54:21.712Z,5.07
2023-01-30T04:56:49.805Z,4.99
2023-01-30T04:59:17.821Z,4.97
2023-01-30T05:01:45.907Z,4.98
2023-01-30T05:04:15.279Z,4.90
2023-01-30T05:06:43.294Z,4.88
2023-01-30T05:09:11.353Z,4.86
2023-01-30T05:11:39.416Z,4.86
2023-01-30T05:14:07.742Z,4.85
2023-01-30T05:16:35.773Z,4.96
2023-01-30T05:19:03.751Z,4.70
2023-01-30T05:21:33.385Z,4.55
2023-01-30T05:24:01.360Z,4.69
2023-01-30T05:26:29.372Z,4.75
2023-01-30T05:28:59.024Z,4.76
2023-01-30T05:31:27.476Z,4.83
2023-01-30T05:33:55.634Z,4.80
2023-01-30T05:36:24.596Z,4.83
2023-01-30T05:38:54.185Z,4.69
2023-01-30T05:41:22.199Z,4.70
2023-01-30T05:43:51.649Z,4.74
2023-01-30T05:46:20.261Z,4.77
2023-01-30T05:48:48.805Z,4.85
2023-01-30T05:51:19.280Z,4.84
2023-01-30T05:53:47.407Z,4.71
2023-01-30T05:56:16.828Z,4.49
2023-01-30T05:58:45.435Z,4.63
2023-01-30T06:01:14.315Z,4.71
2023-01-30T06:03:42.465Z,4.57
2023-01-30T06:06:13.579Z,4.51
2023-01-30T06:08:41.682Z,4.60
2023-01-30T06:11:12.268Z,4.60
2023-01-30T06:13:42.752Z,4.53
2023-01-30T06:16:15.750Z,4.63
2023-01-30T06:18:43.952Z,4.76
2023-01-30T06:21:12.017Z,4.78
2023-01-30T06:23:40.067Z,4.82
2023-01-30T06:26:09.382Z,4.81
2023-01-30T06:28:38.416Z,4.82
2023-01-30T06:31:09.233Z,4.82
2023-01-30T06:33:37.621Z,4.79
2023-01-30T06:36:06.104Z,4.84
2023-01-30T06:38:34.560Z,4.86
2023-01-30T06:41:02.943Z,4.82
2023-01-30T06:43:30.988Z,4.86
2023-01-30T06:46:00.067Z,4.85
2023-01-30T06:48:29.485Z,4.83
2023-01-30T06:50:57.524Z,4.78
2023-01-30T06:53:30.457Z,4.78
2023-01-30T06:55:59.245Z,4.74
2023-01-30T06:58:27.766Z,4.64
2023-01-30T07:00:55.777Z,4.52
2023-01-30T07:03:24.156Z,4.58
2023-01-30T07:05:53.733Z,4.63
2023-01-30T07:08:24.001Z,4.58
2023-01-30T07:10:52.541Z,4.44
2023-01-30T07:13:20.556Z,4.25
2023-01-30T07:15:48.536Z,4.23
2023-01-30T07:18:16.518Z,4.41
2023-01-30T07:20:48.226Z,4.50
2023-01-30T07:23:18.129Z,4.55
2023-01-30T07:25:46.219Z,4.59
2023-01-30T07:28:14.332Z,4.48
2023-01-30T07:30:42.394Z,4.51
2023-01-30T07:33:10.473Z,4.61
2023-01-30T07:35:39.156Z,4.72
2023-01-30T07:38:07.289Z,4.71
2023-01-30T07:40:36.775Z,4.60
2023-01-30T07:43:06.869Z,4.75
2023-01-30T07:45:38.664Z,4.78
2023-01-30T07:48:06.816Z,4.86
2023-01-30T07:50:34.887Z,4.70
2023-01-30T07:53:04.853Z,4.90
2023-01-30T07:55:32.899Z,4.97
2023-01-30T07:58:02.478Z,5.03
2023-01-30T08:00:30.709Z,5.05
2023-01-30T08:02:59.037Z,5.08
2023-01-30T08:05:27.382Z,5.16
2023-01-30T08:07:57.695Z,5.14
2023-01-30T08:10:26.024Z,5.18
2023-01-30T08:12:54.176Z,5.17
2023-01-30T08:15:23.816Z,5.30
2023-01-30T08:17:56.295Z,5.40
2023-01-30T08:20:24.717Z,5.50
2023-01-30T08:22:52.974Z,5.58
2023-01-30T08:25:21.537Z,5.60
2023-01-30T08:27:49.644Z,5.57
2023-01-30T08:30:18.657Z,5.65
2023-01-30T08:32:48.373Z,5.61
2023-01-30T08:35:16.678Z,5.67
2023-01-30T08:37:45.072Z,5.69
2023-01-30T08:40:14.217Z,5.66
2023-01-30T08:42:44.496Z,5.75
2023-01-30T08:45:12.997Z,5.96
2023-01-30T08:47:41.096Z,6.06
2023-01-30T08:50:12.282Z,6.16
2023-01-30T08:52:40.291Z,6.07
2023-01-30T08:55:09.557Z,6.10
2023-01-30T08:57:37.737Z,6.29
2023-01-30T09:00:07.146Z,6.47
2023-01-30T09:02:35.349Z,6.66
2023-01-30T09:05:03.475Z,6.71
2023-01-30T09:07:32.947Z,6.79
2023-01-30T09:10:01.188Z,6.67
2023-01-30T09:12:29.271Z,5.89
2023-01-30T09:14:58.548Z,5.61
2023-01-30T09:17:26.603Z,5.76
2023-01-30T09:19:54.731Z,5.76
2023-01-30T09:22:22.867Z,5.81
2023-01-30T09:24:52.376Z,5.84
2023-01-30T09:27:20.340Z,6.08
2023-01-30T09:29:48.463Z,6.13
2023-01-30T09:32:16.550Z,6.20
2023-01-30T09:34:44.598Z,5.93
2023-01-30T09:37:12.618Z,5.92
2023-01-30T09:39:40.578Z,6.12
2023-01-30T09:45:33.637Z,6.50
2023-01-30T09:48:13.483Z,6.80
2023-01-30T09:51:33.848Z,7.09
2023-01-30T09:54:15.678Z,7.25
2023-01-30T09:56:43.815Z,6.95
2023-01-30T09:59:20.564Z,7.03
2023-01-30T10:01:59.149Z,7.40
2023-01-30T10:04:34.353Z,7.64
2023-01-30T10:07:12.156Z,7.52
2023-01-30T10:09:46.013Z,7.24
2023-01-30T10:12:30.943Z,7.45
2023-01-30T10:15:24.660Z,7.76
2023-01-30T10:18:08.007Z,7.90
2023-01-30T10:20:48.683Z,7.92
2023-01-30T10:23:32.468Z,8.03
2023-01-30T10:26:06.517Z,8.07
2023-01-30T10:28:37.887Z,7.93
2023-01-30T10:31:08.377Z,8.03
2023-01-30T10:33:45.106Z,7.92
2023-01-30T10:36:17.255Z,7.76
2023-01-30T10:38:48.093Z,8.04
2023-01-30T10:41:27.834Z,8.17
2023-01-30T10:44:01.559Z,7.98
2023-01-30T10:46:45.336Z,7.58
2023-01-30T10:49:20.125Z,7.01
2023-01-30T10:51:58.399Z,7.22
2023-01-30T10:54:31.040Z,7.69
2023-01-30T10:57:08.046Z,7.94
2023-01-30T10:59:51.462Z,8.16
2023-01-30T11:02:26.629Z,8.21
2023-01-30T11:05:01.277Z,8.19
2023-01-30T11:07:32.169Z,8.16
2023-01-30T11:10:01.075Z,8.09
2023-01-30T11:12:29.126Z,7.93
2023-01-30T11:14:59.874Z,7.89
2023-01-30T11:17:34.799Z,7.88
2023-01-30T11:20:11.249Z,7.77
2023-01-30T11:22:47.409Z,7.88
2023-01-30T11:25:18.287Z,7.84
2023-01-30T11:27:54.943Z,7.53
2023-01-30T11:30:27.831Z,7.41
2023-01-30T11:33:08.232Z,7.19
2023-01-30T11:35:45.387Z,7.16
2023-01-30T11:38:21.733Z,7.20
2023-01-30T11:40:49.840Z,6.99
2023-01-30T11:43:17.830Z,6.85
2023-01-30T11:45:50.481Z,6.91
2023-01-30T11:48:32.765Z,6.83
2023-01-30T11:51:12.672Z,6.68
2023-01-30T11:53:45.055Z,6.43
2023-01-30T11:56:18.890Z,6.38
2023-01-30T11:58:58.245Z,6.36
2023-01-30T12:01:29.668Z,6.38
2023-01-30T12:03:59.343Z,6.36
2023-01-30T12:06:32.546Z,6.53
2023-01-30T12:09:00.995Z,6.26
2023-01-30T12:11:32.567Z,5.87
2023-01-30T12:14:28.061Z,6.51
2023-01-30T12:17:03.752Z,6.53
2023-01-30T12:19:46.576Z,6.84
2023-01-30T12:22:24.040Z,7.15
2023-01-30T12:24:59.727Z,7.17
2023-01-30T12:27:45.706Z,7.29
2023-01-30T12:30:24.105Z,7.32
2023-01-30T12:32:57.590Z,6.92
2023-01-30T12:35:35.964Z,7.49
2023-01-30T12:38:18.218Z,7.72
2023-01-30T12:40:56.913Z,7.56
2023-01-30T12:43:50.020Z,7.66
2023-01-30T12:46:36.791Z,7.83
2023-01-30T12:49:21.157Z,7.87
2023-01-30T12:52:08.165Z,7.73
2023-01-30T12:54:54.523Z,7.78
2023-01-30T12:57:33.944Z,7.88
2023-01-30T13:00:16.801Z,7.24
2023-01-30T13:02:59.592Z,7.60
2023-01-30T13:05:38.362Z,7.88
2023-01-30T13:08:22.727Z,7.78
2023-01-30T13:11:03.810Z,7.72
2023-01-30T13:13:43.236Z,7.86
2023-01-30T13:16:17.963Z,8.02
2023-01-30T13:18:50.750Z,7.99
2023-01-30T13:21:24.775Z,7.87
2023-01-30T13:24:12.761Z,7.41
2023-01-30T13:26:44.066Z,6.99
2023-01-30T13:29:17.445Z,7.13
2023-01-30T13:31:51.906Z,7.30
2023-01-30T13:34:27.848Z,7.52
2023-01-30T13:37:00.542Z,7.51
2023-01-30T13:39:36.866Z,7.60
2023-01-30T13:42:19.049Z,7.83
2023-01-30T13:44:49.305Z,7.89
2023-01-30T13:47:35.370Z,7.95
2023-01-30T13:50:31.883Z,7.90
2023-01-30T13:53:07.135Z,7.75
2023-01-30T13:55:43.040Z,7.97
2023-01-30T13:58:25.211Z,7.95
2023-01-30T14:00:54.620Z,8.12
2023-01-30T14:03:31.493Z,8.02
2023-01-30T14:06:12.304Z,8.21
2023-01-30T14:08:49.859Z,7.98
2023-01-30T14:11:34.351Z,7.39
2023-01-30T14:14:07.689Z,7.54
2023-01-30T14:16:47.629Z,7.68
2023-01-30T14:19:38.512Z,7.66
2023-01-30T14:22:21.500Z,7.95
2023-01-30T14:25:22.765Z,7.87
2023-01-30T14:27:52.857Z,7.91
2023-01-30T14:30:47.780Z,7.99
2023-01-30T14:33:36.268Z,8.07
2023-01-30T14:36:36.255Z,8.09
2023-01-30T14:39:42.564Z,7.91
2023-01-30T14:42:21.371Z,8.25
2023-01-30T14:45:16.798Z,8.39
2023-01-30T14:47:47.675Z,8.27
2023-01-30T14:50:23.894Z,8.46
2023-01-30T14:52:57.493Z,8.39
2023-01-30T14:55:29.598Z,8.43
2023-01-30T14:58:00.121Z,8.29
2023-01-30T15:00:32.257Z,8.34
2023-01-30T15:03:04.520Z,8.31
2023-01-30T15:05:35.069Z,8.42
2023-01-30T15:08:09.252Z,8.31
2023-01-30T15:10:59.292Z,8.17
2023-01-30T15:13:59.243Z,8.00
2023-01-30T15:16:44.945Z,7.90
2023-01-30T15:19:38.877Z,8.04
2023-01-30T15:22:18.101Z,7.95
2023-01-30T15:25:22.382Z,7.89
2023-01-30T15:28:06.217Z,7.81
2023-01-30T15:30:46.511Z,7.96
2023-01-30T15:33:29.455Z,8.13
2023-01-30T15:36:01.094Z,8.09
2023-01-30T15:38:31.690Z,7.99
2023-01-30T15:41:03.441Z,7.85
2023-01-30T15:43:51.208Z,7.67
2023-01-30T15:46:28.360Z,7.65
2023-01-30T15:49:24.972Z,7.45
2023-01-30T15:51:54.721Z,7.49
2023-01-30T15:54:25.263Z,7.52
2023-01-30T15:56:53.312Z,7.33
2023-01-30T15:59:30.433Z,7.32
2023-01-30T16:02:08.332Z,7.36
2023-01-30T16:04:36.337Z,7.36
2023-01-30T16:07:18.117Z,7.50
2023-01-30T16:10:06.778Z,7.53
2023-01-30T16:12:36.628Z,7.33
2023-01-30T16:15:18.920Z,7.46
2023-01-30T16:17:56.666Z,7.39
2023-01-30T16:20:25.012Z,7.42
2023-01-30T16:22:54.862Z,7.39
2023-01-30T16:25:26.406Z,7.35
2023-01-30T16:27:54.969Z,7.34
2023-01-30T16:30:26.560Z,7.32
2023-01-30T16:32:56.971Z,7.27
2023-01-30T16:35:33.905Z,7.15
2023-01-30T16:38:07.370Z,6.93
2023-01-30T16:40:46.077Z,6.92
2023-01-30T16:43:20.288Z,6.89
2023-01-30T16:46:23.838Z,6.92
2023-01-30T16:48:52.372Z,6.90
2023-01-30T16:51:24.019Z,6.90
2023-01-30T16:53:58.282Z,6.80
2023-01-30T16:56:26.693Z,6.73
2023-01-30T16:58:58.293Z,6.65
2023-01-30T17:01:37.423Z,6.60
2023-01-30T17:04:08.442Z,6.51
2023-01-30T17:06:39.885Z,6.49
2023-01-30T17:09:34.861Z,6.48
2023-01-30T17:12:02.949Z,6.40
2023-01-30T17:14:31.549Z,6.34
2023-01-30T17:17:04.443Z,6.28
2023-01-30T17:19:32.423Z,6.20
2023-01-30T17:22:03.441Z,6.09
2023-01-30T17:24:32.886Z,6.02
2023-01-30T17:27:03.239Z,5.96
2023-01-30T17:29:42.790Z,5.89
2023-01-30T17:32:12.733Z,5.75
2023-01-30T17:34:41.491Z,5.57
2023-01-30T17:37:15.281Z,5.59
2023-01-30T17:39:44.710Z,5.50
2023-01-30T17:42:13.597Z,5.41
2023-01-30T17:44:42.084Z,5.36
2023-01-30T17:47:11.801Z,5.29
2023-01-30T17:49:40.327Z,5.26
2023-01-30T17:52:08.683Z,5.19
2023-01-30T17:54:36.783Z,5.18
2023-01-30T17:57:09.783Z,5.15
2023-01-30T17:59:37.839Z,5.05
2023-01-30T18:02:05.984Z,5.00
2023-01-30T18:04:33.965Z,4.93
2023-01-30T18:07:06.399Z,4.84
2023-01-30T18:09:34.402Z,4.70
2023-01-30T18:12:03.036Z,4.69
2023-01-30T18:14:32.419Z,4.63
2023-01-30T18:17:00.975Z,4.54
2023-01-30T18:19:31.593Z,4.49
2023-01-30T18:22:00.200Z,4.52
2023-01-30T18:24:29.342Z,4.53
2023-01-30T18:26:57.333Z,4.48
2023-01-30T18:29:25.307Z,4.43
2023-01-30T18:31:54.841Z,4.34
2023-01-30T18:34:22.831Z,4.33
2023-01-30T18:36:50.856Z,4.25
2023-01-30T18:39:18.865Z,4.28
2023-01-30T18:41:46.881Z,4.28
2023-01-30T18:44:14.923Z,4.28
2023-01-30T18:46:43.031Z,4.23
2023-01-30T18:49:12.573Z,4.13
2023-01-30T18:51:41.063Z,3.93
2023-01-30T18:54:09.036Z,3.94
2023-01-30T18:56:38.765Z,3.91
2023-01-30T18:59:07.471Z,3.95
2023-01-30T19:01:38.760Z,3.96
2023-01-30T19:04:08.845Z,3.81
2023-01-30T19:06:39.785Z,3.61
2023-01-30T19:09:09.015Z,3.59
2023-01-30T19:11:54.279Z,3.69
2023-01-30T19:14:22.364Z,3.71
2023-01-30T19:16:51.332Z,3.59
2023-01-30T19:19:19.628Z,3.51
2023-01-30T19:21:49.864Z,3.33
2023-01-30T19:24:18.071Z,3.37
2023-01-30T19:26:46.209Z,3.38
2023-01-30T19:29:14.270Z,3.30
2023-01-30T19:31:42.508Z,3.31
2023-01-30T19:34:12.888Z,3.18
2023-01-30T19:36:41.551Z,3.25
2023-01-30T19:39:12.023Z,3.29
2023-01-30T19:41:40.261Z,3.23
2023-01-30T19:44:09.867Z,3.23
2023-01-30T19:46:37.985Z,3.14
2023-01-30T19:49:06.247Z,3.21
2023-01-30T19:51:35.865Z,3.15
2023-01-30T19:54:07.102Z,2.83
2023-01-30T19:56:38.584Z,2.63
2023-01-30T19:59:07.217Z,2.75
2023-01-30T20:01:37.661Z,2.55
2023-01-30T20:04:06.420Z,2.72
2023-01-30T20:06:38.525Z,2.91
2023-01-30T20:09:09.782Z,2.86
2023-01-30T20:11:41.466Z,2.78
2023-01-30T20:14:10.314Z,2.69
2023-01-30T20:16:38.448Z,2.57
2023-01-30T20:19:08.305Z,2.52
2023-01-30T20:21:37.035Z,2.62
2023-01-30T20:24:06.554Z,2.61
2023-01-30T20:26:36.229Z,2.62
2023-01-30T20:29:06.308Z,2.60
2023-01-30T20:31:35.648Z,2.51
2023-01-30T20:34:05.632Z,2.34
2023-01-30T20:36:34.166Z,2.55
2023-01-30T20:39:04.355Z,2.63
2023-01-30T20:41:35.791Z,2.75
2023-01-30T20:44:08.864Z,2.72
2023-01-30T20:46:41.422Z,2.73
2023-01-30T20:49:13.626Z,2.64
2023-01-30T20:51:41.763Z,2.64
2023-01-30T20:54:12.257Z,2.65
2023-01-30T20:56:43.053Z,2.69
2023-01-30T20:59:15.015Z,2.65
2023-01-30T21:01:43.845Z,2.37
2023-01-30T21:04:14.598Z,2.39
2023-01-30T21:06:46.054Z,2.42
2023-01-30T21:09:17.139Z,2.44
2023-01-30T21:11:45.577Z,2.50
2023-01-30T21:14:15.970Z,2.47
2023-01-30T21:16:44.431Z,2.45
2023-01-30T21:19:15.226Z,2.47
2023-01-30T21:21:50.689Z,2.44
2023-01-30T21:24:21.685Z,2.43
2023-01-30T21:26:49.997Z,2.37
2023-01-30T21:29:24.446Z,2.34
2023-01-30T21:31:53.422Z,2.35
2023-01-30T21:34:21.714Z,2.38
2023-01-30T21:37:09.947Z,2.33
2023-01-30T21:39:55.484Z,2.32
2023-01-30T21:42:41.216Z,2.27
2023-01-30T21:45:11.052Z,2.25
2023-01-30T21:47:39.056Z,2.22
2023-01-30T21:50:08.126Z,2.21
2023-01-30T21:52:36.706Z,2.23
2023-01-30T21:55:05.492Z,2.23
2023-01-30T21:57:33.725Z,2.28
2023-01-30T22:00:02.622Z,2.29
2023-01-30T22:02:32.000Z,2.28
2023-01-30T22:04:59.980Z,2.29
2023-01-30T22:07:27.940Z,2.29
2023-01-30T22:09:57.158Z,2.27
2023-01-30T22:12:26.544Z,2.27
2023-01-30T22:14:54.934Z,2.23
2023-01-30T22:17:23.029Z,2.17
2023-01-30T22:19:52.931Z,2.12
2023-01-30T22:22:22.566Z,2.08
2023-01-30T22:24:50.635Z,1.99
2023-01-30T22:27:18.636Z,1.61
2023-01-30T22:29:46.662Z,1.60
2023-01-30T22:32:14.707Z,1.66
2023-01-30T22:34:42.788Z,1.61
2023-01-30T22:37:12.144Z,1.60
2023-01-30T22:39:40.996Z,1.72
2023-01-30T22:42:09.448Z,1.66
2023-01-30T22:44:39.723Z,1.74
2023-01-30T22:47:07.938Z,1.76
2023-01-30T22:49:36.123Z,1.76
2023-01-30T22:52:04.357Z,1.65
2023-01-30T22:54:34.332Z,1.57
2023-01-30T22:57:02.440Z,1.55
2023-01-30T22:59:30.724Z,1.50
2023-01-30T23:01:58.722Z,1.51
2023-01-30T23:04:26.955Z,1.60
2023-01-30T23:06:54.960Z,1.17
2023-01-30T23:09:24.519Z,1.01
2023-01-30T23:12:14.364Z,1.21
2023-01-30T23:14:43.245Z,1.35
2023-01-30T23:17:25.451Z,1.49
2023-01-30T23:19:53.571Z,1.74
2023-01-30T23:22:21.721Z,1.59
2023-01-30T23:24:51.337Z,1.66
2023-01-30T23:27:21.552Z,1.73
2023-01-30T23:29:49.627Z,1.87
2023-01-30T23:32:23.736Z,2.09
2023-01-30T23:34:51.722Z,2.30
2023-01-30T23:37:40.168Z,2.25
2023-01-30T23:40:09.817Z,2.24
2023-01-30T23:42:39.382Z,2.34
2023-01-30T23:45:08.586Z,2.44
2023-01-30T23:47:36.600Z,2.19
2023-01-30T23:50:05.004Z,2.39
2023-01-30T23:52:33.229Z,2.48
2023-01-30T23:55:01.196Z,2.60
2023-01-30T23:57:29.177Z,2.60
2023-01-30T23:59:58.709Z,2.58
